CRI weather

Cristo Redentor Airport
Cristo Redentor, Mendoza Province, Argentina

Public forecast

Using degrees Celsius for public forecast. Weather courtesy of forecast.io.

Closest aviation weather report (METAR) to Cristo Redentor Airport

Report is more than 2 hours old.

Closest report is Eulogio Sánchez Airport, 45.8 nm (84.8 km) SSW. Retrieved 2020/08/03 22:00 UTC (4 hours ago):

SCTB 032200Z 00000KT CAVOK 17/08 Q1019

Closest aviation forecast (TAF) to Cristo Redentor Airport

Closest forecast is Comodoro Arturo Merino Benítez International Airport, 50.4 nm (93.3 km) SW. Retrieved 2020-08-04 00:00 UTC (2 hours ago):

TAF SCEL 032243Z 0400/0424 15004KT CAVOK TX20/0418Z TN06/0410Z BECMG 0401/0403 7000 NSC BECMG 0404/0406 VRB02KT 2000 BR BKN005 TEMPO 0408/0414 00000KT 0300 FG SCT002 BECMG 0414/0416 17004KT 7000 NSC